ADDS METAR Data INFO
IDs: Format: Raw Decoded Include TAF

Data at: 1518 UTC 23 Oct 2017

KGEV 231510Z AUTO 15009G17KT 120V210 4SM RA OVC003 15/15 A3002 RMK AO2 T01510150
KGEV 231450Z AUTO 14004G15KT 1/2SM RA OVC003 15/15 A3004 RMK AO2 P0003 60037 T01480147
KGEV 231430Z AUTO 14007G15KT 090V190 1/4SM RA OVC003 15/15 A3005 RMK AO2 P0001 T01460145
KGEV 231410Z AUTO 14007KT 100V160 2 1/2SM RA OVC003 14/14 A3006 RMK AO2 P0001 T01420141
KGEV 231350Z AUTO 14006KT 100V230 1 3/4SM RA OVC003 14/14 A3007 RMK AO2 P0007 T01400140
KGEV 231330Z AUTO 14007KT 120V200 1 1/4SM +RA OVC003 14/14 A3008 RMK AO2 P0005 T01380137
KGEV 231310Z AUTO 14006KT 2SM RA OVC003 14/14 A3009 RMK AO2 P0003 T01360135
KGEV 231250Z AUTO 14003KT 1 3/4SM RA OVC003 14/14 A3009 RMK AO2 P0025 T01350135
KGEV 231230Z AUTO 15003KT 1 3/4SM +RA OVC003 14/14 A3010 RMK AO2 P0015 T01360135
KGEV 231210Z AUTO 13006KT 2SM +RA OVC003 14/14 A3009 RMK AO2 P0009 T01360135
KGEV 231150Z AUTO 13004KT 4SM -RA OVC003 14/13 A3010 RMK AO2 P0013 60028 70028 T01350133 10135 20126
KGEV 231130Z AUTO 13004KT 4SM -RA OVC003 14/13 A3012 RMK AO2 P0012 T01350133
KGEV 231110Z AUTO 13004KT 1 1/2SM +RA OVC003 13/13 A3013 RMK AO2 P0008 T01330132
KGEV 231050Z AUTO 15003KT 2SM RA OVC003 13/13 A3014 RMK AO2 P0004 T01330132
KGEV 231030Z AUTO 15003KT 2 1/2SM RA OVC003 13/13 A3015 RMK AO2 P0002 T01320131
KGEV 231010Z AUTO 00000KT 2 1/2SM RA OVC003 13/13 A3017 RMK AO2 VIS 1 1/2V4 T01310130
KGEV 230950Z AUTO 00000KT 2SM RA OVC003 13/13 A3017 RMK AO2 P0002 T01300130
KGEV 230930Z AUTO 14004KT 1/2SM +DZ OVC003 13/13 A3018 RMK AO2 T01300129
KGEV 230910Z AUTO 15004KT 1 1/2SM +RA OVC003 13/13 A3018 RMK AO2 T01280127
KGEV 230850Z AUTO 13004KT 2SM RA OVC003 13/13 A3019 RMK AO2 P0006 60008 T01300128
KGEV 230830Z AUTO 14005KT 2SM +RA OVC003 13/13 A3020 RMK AO2 P0003 T01300128
KGEV 230810Z AUTO 16004KT 3SM +DZ OVC003 13/13 A3020 RMK AO2 P0001 T01300128
KGEV 230750Z AUTO 15005KT 1SM +DZ OVC003 13/13 A3021 RMK AO2 P0001 T01300130
KGEV 230730Z AUTO 13004KT 3/4SM +DZ OVC003 13/13 A3021 RMK AO2 T01300130
KGEV 230710Z AUTO 14004KT 3/4SM +DZ OVC003 13/13 A3022 RMK AO2 T01300128
KGEV 230650Z AUTO 14004KT 3/4SM +DZ OVC003 13/13 A3022 RMK AO2 T01300127
KGEV 230630Z AUTO 14003KT 2 1/2SM DZ OVC003 13/13 A3023 RMK AO2 T01300127
KGEV 230610Z AUTO 14004KT 3SM +DZ OVC003 13/13 A3024 RMK AO2 T01260125
KGEV 230550Z AUTO 14003KT 2 1/2SM +DZ OVC003 13/12 A3025 RMK AO2 T01260123 10142 20126 401880072
KGEV 230530Z AUTO 15004KT 3SM DZ BKN007 OVC011 13/12 A3025 RMK AO2 T01300122
KGEV 230510Z AUTO 13004KT 5SM RA OVC013 14/12 A3026 RMK AO2 T01350117
KGEV 230450Z AUTO 15003KT 10SM OVC015 14/11 A3027 RMK AO2 T01380112
KGEV 230430Z AUTO 14004KT 10SM OVC019 14/11 A3028 RMK AO2 T01400112
KGEV 230410Z AUTO 15004KT 10SM OVC023 14/11 A3028 RMK AO2 T01410111
KGEV 230350Z AUTO 15003KT 10SM OVC025 14/11 A3029 RMK AO2 T01410111
KGEV 230330Z AUTO 13003KT 10SM OVC025 14/11 A3030 RMK AO2 T01420110
KGEV 230310Z AUTO 00000KT 10SM OVC029 14/11 A3031 RMK AO2 T01400108
KGEV 230250Z AUTO 00000KT 10SM OVC029 14/11 A3031 RMK AO2 T01380106
KGEV 230230Z AUTO 15003KT 10SM OVC031 14/11 A3031 RMK AO2 T01400106
KGEV 230210Z AUTO 00000KT 10SM BKN031 BKN037 OVC048 14/11 A3032 RMK AO2 T01360106
KGEV 230150Z AUTO 00000KT 10SM SCT029 BKN037 OVC048 14/11 A3032 RMK AO2 T01400105
KGEV 230130Z AUTO 00000KT 10SM BKN037 14/11 A3032 RMK AO2 T01390106
KGEV 230110Z AUTO 00000KT 10SM BKN035 14/11 A3032 RMK AO2 T01360106
KGEV 230050Z AUTO 00000KT 10SM SCT037 14/11 A3033 RMK AO2 T01400106
KGEV 230030Z AUTO 00000KT 10SM BKN037 14/11 A3033 RMK AO2 T01400106
KGEV 230010Z AUTO 00000KT 10SM BKN037 14/11 A3033 RMK AO2 T01410106
KGEV 222350Z AUTO 00000KT 10SM SCT037 14/11 A3033 RMK AO2 T01400105 10188 20139
KGEV 222330Z AUTO 00000KT 10SM CLR 14/11 A3033 RMK AO2 T01420105
KGEV 222310Z AUTO 00000KT 10SM CLR 15/11 A3032 RMK AO2 T01460105
KGEV 222250Z AUTO 14003KT 10SM CLR 15/10 A3032 RMK AO2 T01460104
KGEV 222230Z AUTO 14003KT 10SM CLR 15/11 A3031 RMK AO2 T01500105
KGEV 222210Z AUTO 00000KT 10SM SCT033 16/11 A3031 RMK AO2 T01550106
KGEV 222150Z AUTO 15003KT 10SM SCT033 16/11 A3032 RMK AO2 T01600106
KGEV 222130Z AUTO 15004KT 10SM SCT033 16/11 A3032 RMK AO2 T01620105
KGEV 222110Z AUTO 14004KT 10SM SCT031 16/10 A3032 RMK AO2 T01630101
KGEV 222050Z AUTO 14004KT 10SM SCT031 17/10 A3032 RMK AO2 T01700101
KGEV 222030Z AUTO 14007KT 10SM SCT031 18/10 A3032 RMK AO2 T01760098
KGEV 222010Z AUTO 14005KT 10SM BKN031 18/10 A3031 RMK AO2 T01750100
KGEV 221950Z AUTO 13005KT 10SM SCT029 17/10 A3032 RMK AO2 T01710098
KGEV 221930Z AUTO 13004KT 10SM SCT029 18/10 A3032 RMK AO2 T01800103
KGEV 221910Z AUTO 13005KT 10SM BKN031 18/10 A3032 RMK AO2 T01790103
KGEV 221850Z AUTO 13006KT 10SM SCT031 18/11 A3033 RMK AO2 T01800106
KGEV 221830Z AUTO 12004KT 10SM SCT031 19/11 A3034 RMK AO2 T01850105
KGEV 221810Z AUTO 18004KT 10SM CLR 18/10 A3035 RMK AO2 T01790097
KGEV 221750Z AUTO 14005KT 10SM CLR 18/09 A3035 RMK AO2 T01810091 10185 20078
KGEV 221730Z AUTO 16006KT 090V220 10SM CLR 18/09 A3036 RMK AO2 T01840093
KGEV 221710Z AUTO 13005KT 10SM CLR 18/08 A3037 RMK AO2 T01770081
KGEV 221650Z AUTO 13006KT 10SM CLR 18/09 A3038 RMK AO2 T01790087
KGEV 221630Z AUTO 16005KT 10SM CLR 18/09 A3038 RMK AO2 T01790087
KGEV 221610Z AUTO 13006KT 10SM CLR 18/09 A3038 RMK AO2 T01770090
KGEV 221550Z AUTO 14005KT 10SM CLR 17/09 A3038 RMK AO2 T01710090
KGEV 221530Z AUTO 14005KT 10SM CLR 17/09 A3039 RMK AO2 T01670094
KGEV 221510Z AUTO 15004KT 10SM CLR 16/10 A3040 RMK AO2 T01600096
KGEV 221450Z AUTO 13003KT 10SM CLR 15/10 A3040 RMK AO2 T01530098
KGEV 221430Z AUTO 00000KT 10SM CLR 14/09 A3041 RMK AO2 T01420091
KGEV 221410Z AUTO 00000KT 10SM CLR 14/09 A3041 RMK AO2 T01360091
KGEV 221350Z AUTO 00000KT 10SM CLR 13/09 A3040 RMK AO2 T01250092
KGEV 221330Z AUTO 00000KT 10SM CLR 11/08 A3040 RMK AO2 T01110081
KGEV 221250Z AUTO 00000KT 10SM CLR 09/07 A3039 RMK AO2 T00900071
KGEV 221230Z AUTO 00000KT 10SM CLR 09/07 A3038 RMK AO2 T00940073
KGEV 221210Z AUTO 00000KT 10SM CLR 08/07 A3038 RMK AO2 T00830068
KGEV 221150Z AUTO 00000KT 10SM CLR 08/07 A3037 RMK AO2 T00810069 10120 20072
KGEV 221130Z AUTO 00000KT 10SM CLR 09/07 A3037 RMK AO2 T00870074
KGEV 221110Z AUTO 00000KT 10SM CLR 09/07 A3037 RMK AO2 T00860070
KGEV 221050Z AUTO 00000KT 10SM CLR 09/07 A3037 RMK AO2 T00900071
KGEV 221030Z AUTO 00000KT 10SM CLR 09/07 A3037 RMK AO2 T00870071
KGEV 221010Z AUTO 00000KT 10SM CLR 10/08 A3036 RMK AO2 T00970076
KGEV 220950Z AUTO 00000KT 10SM CLR 10/08 A3037 RMK AO2 T01020077
KGEV 220930Z AUTO 00000KT 10SM CLR 10/08 A3036 RMK AO2 T01020076
KGEV 220910Z AUTO 00000KT 10SM CLR 11/08 A3036 RMK AO2 T01050075
KGEV 220850Z AUTO 00000KT 10SM CLR 09/08 A3036 RMK AO2 T00910077
KGEV 220830Z AUTO 00000KT 10SM CLR 11/08 A3036 RMK AO2 T01050078
KGEV 220810Z AUTO 00000KT 10SM CLR 10/08 A3036 RMK AO2 T01040080
KGEV 220750Z AUTO 00000KT 10SM CLR 11/08 A3036 RMK AO2 T01080080
KGEV 220730Z AUTO 00000KT 10SM CLR 11/08 A3037 RMK AO2 T01110080
KGEV 220710Z AUTO 00000KT 10SM CLR 11/08 A3037 RMK AO2 T01130081
KGEV 220650Z AUTO 00000KT 10SM CLR 11/08 A3037 RMK AO2 T01140081
KGEV 220630Z AUTO 00000KT 10SM CLR 12/08 A3037 RMK AO2 T01170082
KGEV 220610Z AUTO 00000KT 10SM CLR 12/08 A3038 RMK AO2 T01170081
KGEV 220550Z AUTO 00000KT 10SM CLR 12/08 A3038 RMK AO2 T01210081 10146 20116 402020061
KGEV 220530Z AUTO 00000KT 10SM CLR 12/08 A3038 RMK AO2 T01200082
KGEV 220510Z AUTO 00000KT 10SM CLR 12/08 A3038 RMK AO2 T01220082
KGEV 220450Z AUTO 00000KT 10SM CLR 12/08 A3038 RMK AO2 T01210081
KGEV 220430Z AUTO 00000KT 10SM CLR 12/08 A3039 RMK AO2 T01200081
KGEV 220410Z AUTO 00000KT 10SM CLR 12/08 A3039 RMK AO2 T01200080
KGEV 220350Z AUTO 00000KT 10SM CLR 13/08 A3039 RMK AO2 T01250081
KGEV 220330Z AUTO 00000KT 10SM CLR 12/08 A3040 RMK AO2 T01200083